Time;durP1;ratioP1;P1;durP2;ratioP2;P2;SDS_P1;SDS_P2;PMS_P1;PMS_P2;Temp;Humidity;BMP_temperature;BMP_pressure;BME280_temperature;BME280_humidity;BME280_pressure;Samples;Min_cycle;Max_cycle;Signal;HPM_P1;HPM_P2
2024/01/19 00:01:41;;;;;;;2.55;1.23;;;;;;;;;;5130823;27;20051;-70
2024/01/19 00:04:07;;;;;;;2.78;1.45;;;;;;;;;;5130692;27;20244;-70
2024/01/19 00:06:38;;;;;;;3.95;1.88;;;;;;;;;;5130360;27;20047;-69
2024/01/19 00:09:05;;;;;;;2.58;1.58;;;;;;;;;;5130151;27;20046;-70
2024/01/19 00:11:32;;;;;;;3.58;1.70;;;;;;;;;;5129682;27;20051;-70
2024/01/19 00:13:58;;;;;;;3.35;1.55;;;;;;;;;;5129680;28;20131;-69
2024/01/19 00:16:26;;;;;;;3.85;1.67;;;;;;;;;;5129810;28;20054;-70
2024/01/19 00:18:52;;;;;;;3.70;1.67;;;;;;;;;;5111346;28;20043;-69
2024/01/19 00:21:19;;;;;;;3.80;1.63;;;;;;;;;;5129442;28;20039;-69
2024/01/19 00:23:47;;;;;;;3.58;1.40;;;;;;;;;;5111391;28;20070;-69
2024/01/19 00:26:14;;;;;;;2.97;1.60;;;;;;;;;;5128994;28;20422;-69
2024/01/19 00:28:40;;;;;;;3.45;1.60;;;;;;;;;;5128942;27;20096;-69
2024/01/19 00:31:07;;;;;;;4.15;1.67;;;;;;;;;;5129273;28;20049;-68
2024/01/19 00:33:34;;;;;;;3.40;1.80;;;;;;;;;;5129425;28;20050;-69
2024/01/19 00:36:01;;;;;;;2.90;1.48;;;;;;;;;;5129488;28;20043;-69
2024/01/19 00:38:28;;;;;;;2.38;1.30;;;;;;;;;;5128902;27;20043;-69
2024/01/19 00:40:55;;;;;;;3.40;1.80;;;;;;;;;;5128936;28;20043;-69
2024/01/19 00:43:22;;;;;;;3.55;1.50;;;;;;;;;;5128949;28;20043;-69
2024/01/19 00:45:51;;;;;;;3.75;1.60;;;;;;;;;;5129355;28;20043;-70
2024/01/19 00:48:17;;;;;;;3.67;1.75;;;;;;;;;;5129187;28;20058;-70
2024/01/19 00:50:44;;;;;;;4.60;1.98;;;;;;;;;;5129533;28;20047;-70
2024/01/19 00:53:11;;;;;;;3.08;1.63;;;;;;;;;;5128879;28;20142;-69
2024/01/19 00:55:37;;;;;;;3.25;1.70;;;;;;;;;;5128592;28;20050;-68
2024/01/19 00:58:04;;;;;;;3.67;1.88;;;;;;;;;;5128783;28;20100;-70
2024/01/19 01:00:31;;;;;;;2.95;1.60;;;;;;;;;;5128869;28;20105;-70
2024/01/19 01:02:58;;;;;;;3.83;1.60;;;;;;;;;;5128778;28;20077;-69
2024/01/19 01:05:25;;;;;;;4.30;1.42;;;;;;;;;;5129060;28;20043;-69
2024/01/19 01:07:52;;;;;;;4.78;2.03;;;;;;;;;;5129072;28;20046;-70
2024/01/19 01:10:18;;;;;;;2.88;1.52;;;;;;;;;;5128772;28;20047;-69
2024/01/19 01:12:45;;;;;;;3.60;1.77;;;;;;;;;;5129876;28;20047;-70
2024/01/19 01:15:12;;;;;;;3.75;1.80;;;;;;;;;;5129468;28;20379;-70
2024/01/19 01:17:41;;;;;;;3.47;1.83;;;;;;;;;;5129467;28;20086;-70
2024/01/19 01:20:10;;;;;;;3.33;1.77;;;;;;;;;;5129359;28;20039;-69
2024/01/19 01:22:37;;;;;;;5.32;2.00;;;;;;;;;;5129809;28;20047;-69
2024/01/19 01:25:04;;;;;;;4.18;2.03;;;;;;;;;;5129139;28;20406;-69
2024/01/19 01:27:31;;;;;;;4.05;2.08;;;;;;;;;;5129657;28;20062;-69
2024/01/19 01:29:58;;;;;;;4.07;1.92;;;;;;;;;;5129487;28;20047;-69
2024/01/19 01:32:24;;;;;;;5.13;1.88;;;;;;;;;;5129443;28;20124;-69
2024/01/19 01:34:53;;;;;;;3.50;1.80;;;;;;;;;;5129492;28;20062;-69
2024/01/19 01:37:20;;;;;;;6.15;1.90;;;;;;;;;;5129480;28;20051;-69
2024/01/19 01:39:47;;;;;;;4.50;1.98;;;;;;;;;;5128711;27;20046;-69
2024/01/19 01:42:13;;;;;;;4.38;2.20;;;;;;;;;;5133202;27;20047;-70
2024/01/19 01:44:40;;;;;;;4.43;1.95;;;;;;;;;;5133517;27;20051;-70
2024/01/19 01:47:07;;;;;;;3.50;1.88;;;;;;;;;;5133626;27;20047;-70
2024/01/19 01:49:34;;;;;;;3.17;1.70;;;;;;;;;;5133271;27;20050;-70
2024/01/19 01:52:01;;;;;;;6.95;1.70;;;;;;;;;;5115092;27;20513;-70
2024/01/19 01:54:28;;;;;;;5.00;2.00;;;;;;;;;;5132657;27;20145;-68
2024/01/19 01:56:56;;;;;;;4.55;1.80;;;;;;;;;;5133090;27;20039;-70
2024/01/19 01:59:23;;;;;;;3.97;1.77;;;;;;;;;;5132779;27;20611;-70
2024/01/19 02:01:51;;;;;;;5.95;2.15;;;;;;;;;;5133274;27;20094;-68
2024/01/19 02:04:18;;;;;;;3.88;1.70;;;;;;;;;;5133221;27;20054;-70
2024/01/19 02:06:45;;;;;;;4.55;1.80;;;;;;;;;;5133265;27;20204;-70
2024/01/19 02:09:13;;;;;;;3.80;1.77;;;;;;;;;;5132523;27;20054;-70
2024/01/19 02:11:40;;;;;;;4.43;2.00;;;;;;;;;;5132614;27;20082;-70
2024/01/19 02:14:09;;;;;;;3.95;2.00;;;;;;;;;;5132723;27;20076;-70
2024/01/19 02:16:36;;;;;;;4.55;2.00;;;;;;;;;;5132977;27;20043;-70
2024/01/19 02:19:03;;;;;;;5.07;1.92;;;;;;;;;;5132297;27;20134;-68
2024/01/19 02:21:31;;;;;;;5.05;2.05;;;;;;;;;;5132498;27;20051;-70
2024/01/19 02:24:02;;;;;;;4.07;1.67;;;;;;;;;;5132562;27;20055;-71
2024/01/19 02:26:30;;;;;;;3.55;1.75;;;;;;;;;;5132306;27;20511;-68
2024/01/19 02:28:58;;;;;;;5.22;1.95;;;;;;;;;;5132680;27;20134;-68
2024/01/19 02:31:26;;;;;;;4.25;1.95;;;;;;;;;;5132325;27;20678;-70
2024/01/19 02:33:53;;;;;;;4.47;1.77;;;;;;;;;;5132526;27;20039;-70
2024/01/19 02:36:19;;;;;;;4.05;1.75;;;;;;;;;;5132121;27;20047;-70
2024/01/19 02:38:46;;;;;;;4.07;1.73;;;;;;;;;;5131862;27;20050;-69
2024/01/19 02:41:13;;;;;;;4.70;1.60;;;;;;;;;;5131756;27;20130;-69
2024/01/19 02:43:39;;;;;;;4.72;2.25;;;;;;;;;;5132158;27;20044;-69
2024/01/19 02:46:08;;;;;;;6.72;2.00;;;;;;;;;;5131814;27;20491;-69
2024/01/19 02:48:35;;;;;;;5.07;2.15;;;;;;;;;;5113856;27;20043;-69
2024/01/19 02:51:03;;;;;;;4.72;2.08;;;;;;;;;;5132233;27;20137;-69
2024/01/19 02:53:30;;;;;;;3.85;1.90;;;;;;;;;;5131997;27;20045;-69
2024/01/19 02:56:00;;;;;;;4.13;2.28;;;;;;;;;;5131321;27;20742;-69
2024/01/19 02:58:28;;;;;;;3.15;1.60;;;;;;;;;;5113315;27;20043;-69
2024/01/19 03:00:54;;;;;;;3.97;1.83;;;;;;;;;;5131637;27;20544;-69
2024/01/19 03:03:21;;;;;;;4.45;1.88;;;;;;;;;;5131967;27;20518;-69
2024/01/19 03:05:49;;;;;;;4.72;2.20;;;;;;;;;;5131658;27;20065;-69
2024/01/19 03:08:16;;;;;;;4.22;1.90;;;;;;;;;;5131680;27;20448;-69
2024/01/19 03:10:42;;;;;;;4.18;1.73;;;;;;;;;;5130981;27;20111;-69
2024/01/19 03:13:09;;;;;;;4.00;1.90;;;;;;;;;;5131659;27;20042;-69
2024/01/19 03:15:35;;;;;;;6.15;2.17;;;;;;;;;;5131326;27;20402;-68
2024/01/19 03:18:02;;;;;;;4.85;1.75;;;;;;;;;;5131690;27;20090;-69
2024/01/19 03:20:30;;;;;;;5.63;2.15;;;;;;;;;;5131412;27;20043;-68
2024/01/19 03:22:56;;;;;;;4.18;1.70;;;;;;;;;;5131400;27;20047;-69
2024/01/19 03:25:23;;;;;;;4.30;1.80;;;;;;;;;;5131097;27;20047;-68
2024/01/19 03:27:50;;;;;;;3.35;1.60;;;;;;;;;;5131234;27;20652;-70
2024/01/19 03:30:16;;;;;;;5.07;1.88;;;;;;;;;;5131362;27;20100;-68
2024/01/19 03:32:43;;;;;;;6.28;1.80;;;;;;;;;;5131177;27;20061;-69
2024/01/19 03:35:10;;;;;;;3.95;2.00;;;;;;;;;;5131072;27;20043;-68
2024/01/19 03:37:37;;;;;;;5.07;1.92;;;;;;;;;;5131267;27;20035;-70
2024/01/19 03:40:06;;;;;;;4.60;1.85;;;;;;;;;;5130561;27;20072;-70
2024/01/19 03:42:36;;;;;;;6.00;1.90;;;;;;;;;;5130943;27;20047;-70
2024/01/19 03:45:06;;;;;;;4.75;1.80;;;;;;;;;;5131107;27;20062;-69
2024/01/19 03:47:35;;;;;;;5.53;2.00;;;;;;;;;;5131063;27;20042;-69
2024/01/19 03:50:05;;;;;;;5.95;2.45;;;;;;;;;;5130575;27;20039;-70
2024/01/19 03:52:33;;;;;;;4.60;1.77;;;;;;;;;;5131253;27;20039;-69
2024/01/19 03:55:01;;;;;;;3.85;1.85;;;;;;;;;;5129971;27;20055;-69
2024/01/19 03:57:27;;;;;;;4.07;2.15;;;;;;;;;;5130835;27;20059;-69
2024/01/19 03:59:54;;;;;;;4.80;1.92;;;;;;;;;;5130240;27;20639;-69
2024/01/19 04:02:21;;;;;;;4.35;1.80;;;;;;;;;;5112344;27;20164;-69
2024/01/19 04:04:48;;;;;;;5.68;2.08;;;;;;;;;;5130347;27;20460;-69
2024/01/19 04:07:15;;;;;;;4.13;1.88;;;;;;;;;;5130859;27;20142;-69
2024/01/19 04:09:43;;;;;;;4.20;1.88;;;;;;;;;;5129957;27;20084;-69
2024/01/19 04:12:14;;;;;;;5.72;2.45;;;;;;;;;;5130686;27;20046;-69
2024/01/19 04:14:42;;;;;;;4.97;1.80;;;;;;;;;;5130450;27;20047;-70
2024/01/19 04:17:10;;;;;;;4.80;1.83;;;;;;;;;;5130081;27;20043;-69
2024/01/19 04:19:37;;;;;;;7.80;2.00;;;;;;;;;;5129954;27;20092;-69
2024/01/19 04:22:04;;;;;;;4.05;1.88;;;;;;;;;;5130233;27;20046;-69
2024/01/19 04:24:31;;;;;;;5.68;2.15;;;;;;;;;;5130239;27;20051;-69
2024/01/19 04:26:58;;;;;;;5.30;2.55;;;;;;;;;;5130336;27;20278;-69
2024/01/19 04:29:25;;;;;;;8.07;1.90;;;;;;;;;;5129944;27;20510;-68
2024/01/19 04:31:52;;;;;;;3.92;1.90;;;;;;;;;;5130216;27;20059;-68
2024/01/19 04:34:19;;;;;;;5.82;1.80;;;;;;;;;;5130114;27;20049;-69
2024/01/19 04:36:47;;;;;;;5.20;2.08;;;;;;;;;;5129984;27;20039;-68
2024/01/19 04:39:13;;;;;;;6.43;2.05;;;;;;;;;;5129563;27;20047;-69
2024/01/19 04:41:40;;;;;;;6.07;2.13;;;;;;;;;;5130141;27;20039;-70
2024/01/19 04:44:07;;;;;;;7.07;1.88;;;;;;;;;;5130230;27;20046;-68
2024/01/19 04:46:34;;;;;;;3.28;1.80;;;;;;;;;;5129967;27;20537;-68
2024/01/19 04:49:00;;;;;;;4.10;1.80;;;;;;;;;;5129882;27;20464;-68
2024/01/19 04:51:27;;;;;;;3.78;1.90;;;;;;;;;;5129358;27;20096;-70
2024/01/19 04:53:54;;;;;;;4.15;1.92;;;;;;;;;;5129734;27;20114;-69
2024/01/19 04:56:21;;;;;;;6.35;2.10;;;;;;;;;;5129489;27;20047;-68
2024/01/19 04:58:47;;;;;;;3.28;1.70;;;;;;;;;;5129562;28;20093;-70
2024/01/19 05:01:14;;;;;;;4.45;1.52;;;;;;;;;;5129680;28;20055;-70
2024/01/19 05:03:42;;;;;;;4.72;1.63;;;;;;;;;;5111881;28;20043;-70
2024/01/19 05:06:12;;;;;;;3.60;1.83;;;;;;;;;;5129877;28;20051;-70
2024/01/19 05:08:39;;;;;;;4.40;2.10;;;;;;;;;;5129952;28;20047;-70
2024/01/19 05:11:06;;;;;;;4.72;1.70;;;;;;;;;;5128910;28;20134;-70
2024/01/19 05:13:34;;;;;;;5.15;1.85;;;;;;;;;;5129463;28;20462;-69
2024/01/19 05:16:01;;;;;;;3.78;1.73;;;;;;;;;;5131733;27;20061;-69
2024/01/19 05:18:28;;;;;;;5.05;1.75;;;;;;;;;;5133760;27;20049;-69
2024/01/19 05:20:54;;;;;;;4.80;1.75;;;;;;;;;;5133685;27;20043;-69
2024/01/19 05:23:21;;;;;;;4.15;1.77;;;;;;;;;;5134144;27;20062;-70
2024/01/19 05:25:48;;;;;;;5.18;1.63;;;;;;;;;;5133306;27;20043;-70
2024/01/19 05:28:15;;;;;;;4.13;1.55;;;;;;;;;;5133742;27;20489;-70
2024/01/19 05:30:42;;;;;;;3.72;1.80;;;;;;;;;;5133260;27;20115;-69
2024/01/19 05:33:12;;;;;;;5.07;1.80;;;;;;;;;;5133423;27;20517;-69
2024/01/19 05:35:39;;;;;;;5.65;1.80;;;;;;;;;;5133459;27;20116;-70
2024/01/19 05:38:08;;;;;;;2.93;1.60;;;;;;;;;;5133335;27;20585;-69
2024/01/19 05:40:35;;;;;;;4.13;1.95;;;;;;;;;;5133072;27;20142;-69
2024/01/19 05:43:02;;;;;;;5.35;1.88;;;;;;;;;;5133558;27;20039;-70
2024/01/19 05:45:29;;;;;;;5.43;1.60;;;;;;;;;;5133265;27;20047;-69
2024/01/19 05:47:55;;;;;;;6.88;2.17;;;;;;;;;;5133362;27;20047;-70
2024/01/19 05:50:22;;;;;;;6.88;2.13;;;;;;;;;;5133079;27;20051;-69
2024/01/19 05:52:49;;;;;;;5.68;2.05;;;;;;;;;;5132844;27;20616;-70
2024/01/19 05:55:16;;;;;;;4.28;1.80;;;;;;;;;;5132741;27;20054;-70
2024/01/19 05:57:42;;;;;;;5.30;2.00;;;;;;;;;;5133206;27;20054;-69
2024/01/19 06:00:10;;;;;;;5.25;1.88;;;;;;;;;;5133226;27;20051;-69
2024/01/19 06:02:39;;;;;;;5.85;1.90;;;;;;;;;;5133062;27;20051;-69
2024/01/19 06:05:06;;;;;;;4.00;1.55;;;;;;;;;;5132494;27;20454;-69
2024/01/19 06:07:34;;;;;;;4.65;1.80;;;;;;;;;;5132944;27;20043;-69
2024/01/19 06:10:00;;;;;;;4.65;2.00;;;;;;;;;;5132159;27;20051;-69
2024/01/19 06:12:27;;;;;;;4.95;1.95;;;;;;;;;;5132753;27;20043;-69
2024/01/19 06:14:54;;;;;;;4.70;2.10;;;;;;;;;;5132381;27;20039;-69
2024/01/19 06:17:21;;;;;;;4.03;1.80;;;;;;;;;;5132832;27;20047;-69
2024/01/19 06:19:47;;;;;;;4.53;1.85;;;;;;;;;;5132453;27;20051;-69
2024/01/19 06:22:14;;;;;;;4.47;1.88;;;;;;;;;;5132663;27;20047;-69
2024/01/19 06:24:41;;;;;;;4.45;2.08;;;;;;;;;;5132607;27;20054;-69
2024/01/19 06:27:08;;;;;;;4.40;1.92;;;;;;;;;;5131716;27;20057;-69
2024/01/19 06:29:34;;;;;;;4.25;1.88;;;;;;;;;;5132726;27;20047;-69
2024/01/19 06:32:01;;;;;;;4.28;1.52;;;;;;;;;;5132156;27;20043;-69
2024/01/19 06:34:28;;;;;;;3.17;1.70;;;;;;;;;;5132444;27;20051;-69
2024/01/19 06:36:55;;;;;;;4.63;2.17;;;;;;;;;;5132072;27;20478;-69
2024/01/19 06:39:21;;;;;;;5.30;2.13;;;;;;;;;;5132079;27;20047;-69
2024/01/19 06:41:48;;;;;;;5.32;1.55;;;;;;;;;;5131968;27;20074;-69
2024/01/19 06:44:15;;;;;;;3.65;1.80;;;;;;;;;;5132221;27;20054;-69
2024/01/19 06:46:45;;;;;;;5.03;1.80;;;;;;;;;;5132424;27;20043;-69
2024/01/19 06:49:16;;;;;;;5.78;1.75;;;;;;;;;;5131925;27;20054;-69
2024/01/19 06:51:43;;;;;;;3.53;1.80;;;;;;;;;;5131935;27;20062;-69
2024/01/19 06:54:09;;;;;;;3.35;1.73;;;;;;;;;;5131637;27;20074;-69
2024/01/19 06:56:36;;;;;;;5.63;2.00;;;;;;;;;;5131873;27;20631;-69
2024/01/19 06:59:03;;;;;;;5.45;2.00;;;;;;;;;;5131752;27;20511;-69
2024/01/19 07:01:30;;;;;;;5.90;1.85;;;;;;;;;;5131985;27;20218;-69
2024/01/19 07:03:57;;;;;;;4.28;1.95;;;;;;;;;;5132230;27;20051;-69
2024/01/19 07:06:24;;;;;;;4.60;2.00;;;;;;;;;;5131964;27;20170;-69
2024/01/19 07:08:51;;;;;;;5.50;1.75;;;;;;;;;;5131530;27;20043;-69
2024/01/19 07:11:19;;;;;;;3.33;1.63;;;;;;;;;;5131035;27;20073;-69
2024/01/19 07:13:47;;;;;;;3.88;1.80;;;;;;;;;;5131341;27;20411;-69
2024/01/19 07:16:13;;;;;;;4.63;1.98;;;;;;;;;;5131404;27;20051;-69
2024/01/19 07:18:40;;;;;;;4.93;1.75;;;;;;;;;;5131391;27;20039;-69
2024/01/19 07:21:07;;;;;;;4.03;1.77;;;;;;;;;;5131367;27;20051;-70
2024/01/19 07:23:35;;;;;;;6.97;1.95;;;;;;;;;;5131769;27;20043;-69
2024/01/19 07:26:02;;;;;;;7.30;2.00;;;;;;;;;;5131273;27;20067;-69
2024/01/19 07:28:28;;;;;;;3.67;1.98;;;;;;;;;;5131069;27;20049;-69
2024/01/19 07:30:55;;;;;;;3.55;1.77;;;;;;;;;;5131253;27;20059;-69
2024/01/19 07:33:22;;;;;;;5.18;2.08;;;;;;;;;;5131148;27;20047;-69
2024/01/19 07:35:58;;;;;;;5.85;2.05;;;;;;;;;;5131057;27;20112;-69
2024/01/19 07:38:27;;;;;;;8.45;2.00;;;;;;;;;;5130022;27;20502;-69
2024/01/19 07:40:53;;;;;;;4.15;2.00;;;;;;;;;;5130656;27;20523;-69
2024/01/19 07:43:20;;;;;;;3.97;1.70;;;;;;;;;;5130959;27;20123;-69
2024/01/19 07:45:47;;;;;;;6.30;2.22;;;;;;;;;;5131052;27;20039;-69
2024/01/19 07:48:14;;;;;;;3.65;1.90;;;;;;;;;;5130579;27;20490;-69
2024/01/19 07:50:41;;;;;;;4.10;1.80;;;;;;;;;;5130653;27;20564;-69
2024/01/19 07:53:08;;;;;;;6.15;2.03;;;;;;;;;;5130921;27;20043;-69
2024/01/19 07:55:34;;;;;;;4.97;2.00;;;;;;;;;;5130474;27;20047;-69
2024/01/19 07:58:02;;;;;;;4.00;1.98;;;;;;;;;;5130917;27;20053;-69
2024/01/19 08:00:29;;;;;;;4.07;1.77;;;;;;;;;;5130992;27;20039;-69
2024/01/19 08:02:56;;;;;;;3.45;1.85;;;;;;;;;;5130599;27;20073;-68
2024/01/19 08:05:23;;;;;;;6.00;2.10;;;;;;;;;;5130546;27;20039;-69
2024/01/19 08:07:50;;;;;;;4.85;1.90;;;;;;;;;;5130290;27;20043;-70
2024/01/19 08:10:18;;;;;;;4.45;2.00;;;;;;;;;;5129839;27;20061;-69
2024/01/19 08:12:45;;;;;;;5.90;2.20;;;;;;;;;;5130199;27;20046;-69
2024/01/19 08:15:12;;;;;;;4.15;2.05;;;;;;;;;;5130642;27;20043;-69
2024/01/19 08:17:38;;;;;;;5.88;1.90;;;;;;;;;;5130606;27;20043;-69
2024/01/19 08:20:09;;;;;;;5.65;2.00;;;;;;;;;;5130238;27;20043;-70
2024/01/19 08:22:36;;;;;;;3.28;1.70;;;;;;;;;;5130049;27;20422;-70
2024/01/19 08:25:04;;;;;;;4.43;1.90;;;;;;;;;;5129639;27;20050;-69
2024/01/19 08:27:31;;;;;;;4.10;1.67;;;;;;;;;;5130000;27;20047;-68
2024/01/19 08:29:58;;;;;;;3.95;1.85;;;;;;;;;;5130129;27;20043;-70
2024/01/19 08:32:26;;;;;;;5.43;2.10;;;;;;;;;;5130090;27;20102;-70
2024/01/19 08:34:53;;;;;;;6.32;1.95;;;;;;;;;;5129884;27;20058;-70
2024/01/19 08:37:20;;;;;;;4.72;1.90;;;;;;;;;;5130013;27;20069;-70
2024/01/19 08:39:46;;;;;;;4.85;1.92;;;;;;;;;;5129774;27;20245;-69
2024/01/19 08:42:13;;;;;;;4.90;2.10;;;;;;;;;;5129953;27;20047;-69
2024/01/19 08:44:44;;;;;;;7.28;2.38;;;;;;;;;;5129944;27;20503;-69
2024/01/19 08:47:11;;;;;;;4.25;1.92;;;;;;;;;;5129742;27;20494;-69
2024/01/19 08:49:38;;;;;;;4.53;2.08;;;;;;;;;;5130303;27;20047;-70
2024/01/19 08:52:05;;;;;;;6.03;1.75;;;;;;;;;;5111252;27;20039;-69
2024/01/19 08:54:32;;;;;;;6.15;1.98;;;;;;;;;;5129717;27;20088;-69
2024/01/19 08:56:59;;;;;;;5.50;2.30;;;;;;;;;;5129618;27;20682;-69
2024/01/19 08:59:28;;;;;;;6.20;2.17;;;;;;;;;;5129969;27;20119;-69
2024/01/19 09:01:55;;;;;;;5.20;1.90;;;;;;;;;;5129236;28;20103;-69
2024/01/19 09:04:23;;;;;;;3.97;1.90;;;;;;;;;;5129550;28;20458;-70
2024/01/19 09:06:51;;;;;;;4.53;1.80;;;;;;;;;;5129582;28;20079;-69
2024/01/19 09:09:18;;;;;;;6.28;2.00;;;;;;;;;;5129333;28;20444;-69
2024/01/19 09:11:45;;;;;;;6.15;2.00;;;;;;;;;;5129534;28;20039;-70
2024/01/19 09:14:12;;;;;;;5.20;1.85;;;;;;;;;;5129765;28;20043;-70
2024/01/19 09:16:43;;;;;;;6.15;2.35;;;;;;;;;;5129823;28;20517;-69
2024/01/19 09:19:11;;;;;;;8.77;2.40;;;;;;;;;;5129658;28;20043;-69
2024/01/19 09:21:44;;;;;;;6.07;2.33;;;;;;;;;;5129497;28;20050;-69
2024/01/19 09:24:12;;;;;;;5.75;2.40;;;;;;;;;;5129128;28;20071;-70
2024/01/19 09:26:39;;;;;;;8.25;2.33;;;;;;;;;;5129544;28;20043;-70
2024/01/19 09:29:08;;;;;;;5.43;2.30;;;;;;;;;;5129240;28;20548;-70
2024/01/19 09:31:43;;;;;;;5.47;2.03;;;;;;;;;;5129231;28;20045;-69
2024/01/19 09:34:09;;;;;;;5.45;2.28;;;;;;;;;;5129285;28;20599;-69
2024/01/19 09:36:38;;;;;;;4.47;2.00;;;;;;;;;;5129589;28;20054;-69
2024/01/19 09:39:05;;;;;;;4.57;2.45;;;;;;;;;;5128724;28;20044;-68
2024/01/19 09:41:45;;;;;;;7.07;2.30;;;;;;;;;;5111406;28;20039;-70
2024/01/19 09:44:13;;;;;;;5.60;2.03;;;;;;;;;;5129293;28;20051;-68
2024/01/19 09:46:52;;;;;;;6.38;2.08;;;;;;;;;;5129149;28;20407;-70
2024/01/19 09:49:46;;;;;;;7.80;2.10;;;;;;;;;;5129133;28;20089;-70
2024/01/19 09:52:21;;;;;;;2.95;1.70;;;;;;;;;;5128901;27;20043;-70
2024/01/19 09:54:51;;;;;;;6.90;2.15;;;;;;;;;;5128564;28;20100;-69
2024/01/19 09:57:17;;;;;;;10.73;2.60;;;;;;;;;;5129074;28;20080;-69
2024/01/19 09:59:44;;;;;;;15.43;3.60;;;;;;;;;;5128977;27;20394;-68
2024/01/19 10:02:13;;;;;;;25.63;3.17;;;;;;;;;;5131073;27;20521;-69
2024/01/19 10:04:40;;;;;;;11.70;2.17;;;;;;;;;;5133164;27;20043;-69
2024/01/19 10:07:07;;;;;;;12.27;2.05;;;;;;;;;;5133057;27;20043;-69
2024/01/19 10:09:34;;;;;;;11.52;2.53;;;;;;;;;;5132465;27;20047;-68
2024/01/19 10:12:01;;;;;;;5.25;1.80;;;;;;;;;;5132299;27;20697;-69
2024/01/19 10:14:28;;;;;;;5.32;2.38;;;;;;;;;;5132499;27;20043;-69
2024/01/19 10:16:55;;;;;;;7.68;2.33;;;;;;;;;;5132688;27;20126;-69
2024/01/19 10:19:21;;;;;;;6.75;2.13;;;;;;;;;;5132128;27;20055;-69
2024/01/19 10:21:51;;;;;;;5.22;2.10;;;;;;;;;;5132674;27;20158;-69
2024/01/19 10:24:19;;;;;;;4.68;2.17;;;;;;;;;;5132412;27;20055;-69
2024/01/19 10:26:53;;;;;;;4.78;2.40;;;;;;;;;;5132692;27;20118;-69
2024/01/19 10:29:20;;;;;;;5.63;2.03;;;;;;;;;;5132605;27;20047;-69
2024/01/19 10:31:54;;;;;;;6.18;2.30;;;;;;;;;;5132704;27;20144;-69
2024/01/19 10:34:26;;;;;;;8.52;2.38;;;;;;;;;;5131962;27;20083;-69
2024/01/19 10:36:53;;;;;;;5.10;2.30;;;;;;;;;;5132155;27;20047;-69
2024/01/19 10:39:25;;;;;;;4.85;2.10;;;;;;;;;;5131672;27;20043;-69
2024/01/19 10:42:05;;;;;;;4.97;1.67;;;;;;;;;;5132123;27;20043;-70
2024/01/19 10:44:32;;;;;;;4.33;2.00;;;;;;;;;;5132350;27;20079;-70
2024/01/19 10:46:59;;;;;;;5.50;2.33;;;;;;;;;;5132199;27;20039;-70
2024/01/19 10:49:26;;;;;;;6.18;2.35;;;;;;;;;;5132180;27;20043;-70
2024/01/19 10:51:55;;;;;;;4.72;2.22;;;;;;;;;;5132246;27;20074;-69
2024/01/19 10:54:26;;;;;;;6.47;2.40;;;;;;;;;;5131202;27;20122;-69
2024/01/19 10:57:05;;;;;;;;;;;;;;;;;;5132469;27;20074;-69
2024/01/19 10:59:34;;;;;;;5.28;1.77;;;;;;;;;;5132121;27;19972;-69
2024/01/19 11:02:03;;;;;;;5.75;2.05;;;;;;;;;;5131960;27;20047;-69
2024/01/19 11:04:32;;;;;;;6.32;2.08;;;;;;;;;;5132189;27;20111;-69
2024/01/19 11:06:59;;;;;;;6.15;2.35;;;;;;;;;;5131577;27;20090;-68
2024/01/19 11:09:26;;;;;;;4.47;2.17;;;;;;;;;;5131304;27;20078;-69
2024/01/19 11:12:02;;;;;;;3.83;1.70;;;;;;;;;;5131255;27;20102;-69
2024/01/19 11:14:32;;;;;;;5.00;2.00;;;;;;;;;;5130528;27;20043;-69
2024/01/19 11:16:59;;;;;;;6.18;1.90;;;;;;;;;;5131607;27;20043;-69
2024/01/19 11:19:26;;;;;;;4.80;1.73;;;;;;;;;;5131491;27;20642;-69
2024/01/19 11:21:52;;;;;;;2.80;1.40;;;;;;;;;;5131438;27;20057;-69
2024/01/19 11:24:21;;;;;;;3.95;1.60;;;;;;;;;;5131013;27;20534;-69
2024/01/19 11:26:59;;;;;;;4.15;1.52;;;;;;;;;;5131291;27;20122;-69
2024/01/19 11:29:31;;;;;;;3.40;1.60;;;;;;;;;;5131150;27;20059;-69
2024/01/19 11:31:58;;;;;;;6.47;2.20;;;;;;;;;;5131130;27;20598;-69
2024/01/19 11:34:51;;;;;;;6.00;1.92;;;;;;;;;;5130797;27;20392;-69
2024/01/19 11:37:46;;;;;;;4.93;1.80;;;;;;;;;;5126778;27;20043;-69
2024/01/19 11:40:36;;;;;;;2.95;1.67;;;;;;;;;;5110150;28;20039;-69
2024/01/19 11:43:03;;;;;;;3.10;1.50;;;;;;;;;;5099313;28;20127;-69
2024/01/19 11:45:39;;;;;;;4.88;1.60;;;;;;;;;;5110649;28;20075;-69
2024/01/19 11:48:08;;;;;;;3.72;1.90;;;;;;;;;;5109928;28;20433;-68
2024/01/19 11:50:46;;;;;;;5.72;1.88;;;;;;;;;;5110560;28;20043;-70
2024/01/19 11:53:14;;;;;;;7.07;2.28;;;;;;;;;;5110046;28;20082;-70
2024/01/19 11:55:42;;;;;;;4.80;1.80;;;;;;;;;;5109679;28;20127;-70
2024/01/19 11:58:25;;;;;;;3.42;1.80;;;;;;;;;;5110259;28;20054;-69
2024/01/19 12:00:57;;;;;;;3.65;1.55;;;;;;;;;;5110302;28;20055;-69
2024/01/19 12:03:25;;;;;;;3.95;1.60;;;;;;;;;;5109854;28;20071;-69
2024/01/19 12:05:54;;;;;;;4.93;1.85;;;;;;;;;;5109750;28;20040;-69
2024/01/19 12:08:21;;;;;;;4.33;1.63;;;;;;;;;;5109744;28;20050;-69
2024/01/19 12:11:00;;;;;;;4.90;1.80;;;;;;;;;;5109729;28;20050;-69
2024/01/19 12:13:26;;;;;;;4.32;1.63;;;;;;;;;;5109839;28;20039;-69
2024/01/19 12:15:53;;;;;;;3.40;1.58;;;;;;;;;;5110304;28;20119;-69
2024/01/19 12:18:21;;;;;;;5.30;1.70;;;;;;;;;;5109610;28;20055;-69
2024/01/19 12:20:48;;;;;;;3.15;1.70;;;;;;;;;;5110010;28;20050;-69
2024/01/19 12:23:14;;;;;;;2.83;1.30;;;;;;;;;;5109196;28;20483;-69
2024/01/19 12:25:41;;;;;;;2.80;1.40;;;;;;;;;;5109178;28;20063;-69
2024/01/19 12:28:08;;;;;;;3.13;1.40;;;;;;;;;;5109940;28;20040;-69
2024/01/19 12:30:35;;;;;;;3.33;1.40;;;;;;;;;;5109606;28;20518;-69
2024/01/19 12:33:17;;;;;;;2.88;1.27;;;;;;;;;;5109284;28;20507;-69
2024/01/19 12:35:47;;;;;;;2.00;1.20;;;;;;;;;;5091488;28;20422;-70
2024/01/19 12:38:15;;;;;;;2.33;1.10;;;;;;;;;;5116326;27;20047;-68
2024/01/19 12:40:43;;;;;;;3.78;1.35;;;;;;;;;;5129701;27;20043;-68
2024/01/19 12:43:11;;;;;;;2.55;1.40;;;;;;;;;;5129684;27;20414;-69
2024/01/19 12:45:38;;;;;;;2.50;1.00;;;;;;;;;;5129842;27;20051;-69
2024/01/19 12:48:10;;;;;;;2.50;1.05;;;;;;;;;;5130455;27;20130;-69
2024/01/19 12:50:50;;;;;;;3.53;1.20;;;;;;;;;;5130346;27;20047;-68
2024/01/19 12:53:17;;;;;;;3.15;1.20;;;;;;;;;;5129604;27;20068;-69
2024/01/19 12:55:45;;;;;;;1.80;1.05;;;;;;;;;;5129646;27;20054;-69
2024/01/19 12:58:21;;;;;;;2.72;1.20;;;;;;;;;;5129962;27;20078;-69
2024/01/19 13:00:47;;;;;;;2.20;1.17;;;;;;;;;;5129677;27;20483;-69
2024/01/19 13:03:18;;;;;;;2.72;1.10;;;;;;;;;;5129524;27;20048;-69
2024/01/19 13:05:45;;;;;;;;;;;;;;;;;;5130608;28;20047;-69
2024/01/19 13:08:12;;;;;;;3.15;1.02;;;;;;;;;;5129993;28;19925;-69
2024/01/19 13:10:39;;;;;;;2.28;1.10;;;;;;;;;;5129094;28;20050;-69
2024/01/19 13:13:09;;;;;;;2.85;1.10;;;;;;;;;;5129173;28;20083;-70
2024/01/19 13:15:36;;;;;;;2.38;1.27;;;;;;;;;;5111416;28;20047;-70
2024/01/19 13:18:15;;;;;;;2.10;1.00;;;;;;;;;;5129681;28;20047;-70
2024/01/19 13:20:43;;;;;;;2.85;1.15;;;;;;;;;;5111254;28;20047;-76
2024/01/19 13:23:10;;;;;;;2.40;1.00;;;;;;;;;;5111179;28;20059;-70
2024/01/19 13:25:37;;;;;;;1.98;1.05;;;;;;;;;;5128996;28;20039;-71
2024/01/19 13:28:04;;;;;;;1.73;1.00;;;;;;;;;;5129887;28;20058;-70
2024/01/19 13:30:31;;;;;;;2.70;1.10;;;;;;;;;;5129878;28;20040;-74
2024/01/19 13:33:01;;;;;;;2.30;0.90;;;;;;;;;;5111386;28;20495;-76
2024/01/19 13:35:29;;;;;;;2.13;1.00;;;;;;;;;;5111049;28;20134;-72
2024/01/19 13:37:56;;;;;;;1.95;0.95;;;;;;;;;;5133196;27;20043;-77
2024/01/19 13:40:24;;;;;;;2.15;1.00;;;;;;;;;;5114727;27;20047;-72
2024/01/19 13:42:51;;;;;;;2.70;1.23;;;;;;;;;;5133590;27;20046;-72
2024/01/19 13:45:18;;;;;;;2.20;1.10;;;;;;;;;;5115293;27;20267;-69
2024/01/19 13:47:45;;;;;;;2.60;1.00;;;;;;;;;;5133346;27;20054;-71
2024/01/19 13:50:12;;;;;;;2.05;1.00;;;;;;;;;;5133441;27;20438;-72
2024/01/19 13:52:39;;;;;;;2.47;1.10;;;;;;;;;;5133547;27;20051;-72
2024/01/19 13:55:08;;;;;;;2.85;1.20;;;;;;;;;;5129550;27;20054;-74
2024/01/19 13:57:36;;;;;;;3.80;1.20;;;;;;;;;;5103937;27;20075;-73
2024/01/19 14:00:03;;;;;;;3.78;1.10;;;;;;;;;;5132536;27;20054;-73
2024/01/19 14:02:31;;;;;;;4.25;1.63;;;;;;;;;;5113818;28;20051;-73
2024/01/19 14:04:58;;;;;;;2.35;1.20;;;;;;;;;;5125609;27;20534;-79
2024/01/19 14:07:26;;;;;;;2.67;1.10;;;;;;;;;;5133367;27;20051;-74
2024/01/19 14:09:53;;;;;;;2.35;1.30;;;;;;;;;;5132890;27;20714;-75
2024/01/19 14:12:21;;;;;;;2.25;1.20;;;;;;;;;;5129829;27;20044;-75
2024/01/19 14:14:48;;;;;;;3.90;1.20;;;;;;;;;;5111996;28;20044;-74
2024/01/19 14:17:15;;;;;;;2.65;1.20;;;;;;;;;;5112624;28;20503;-75
2024/01/19 14:19:42;;;;;;;3.20;1.33;;;;;;;;;;5113133;28;20092;-84
2024/01/19 14:22:09;;;;;;;2.33;1.10;;;;;;;;;;5112984;28;20528;-84
2024/01/19 14:24:36;;;;;;;1.42;0.98;;;;;;;;;;5112424;28;20051;-73
2024/01/19 14:27:04;;;;;;;2.90;1.15;;;;;;;;;;5112460;28;20054;-83
2024/01/19 14:29:31;;;;;;;2.67;1.40;;;;;;;;;;5116924;27;20043;-83
2024/01/19 14:31:59;;;;;;;2.83;1.55;;;;;;;;;;5133164;27;20043;-74
2024/01/19 14:34:30;;;;;;;3.33;1.30;;;;;;;;;;5132732;27;20138;-80
2024/01/19 14:37:09;;;;;;;2.80;1.15;;;;;;;;;;5134937;27;20043;-82
2024/01/19 14:39:39;;;;;;;2.33;1.20;;;;;;;;;;5132205;27;20051;-80
2024/01/19 14:42:07;;;;;;;3.00;1.30;;;;;;;;;;5132788;27;20044;-78
2024/01/19 14:44:34;;;;;;;2.20;1.13;;;;;;;;;;5132721;27;20046;-82
2024/01/19 14:47:02;;;;;;;1.83;1.15;;;;;;;;;;5132099;27;20043;-83
2024/01/19 14:49:33;;;;;;;3.00;1.20;;;;;;;;;;5132624;27;20043;-84